sensor_id;sensor_type;location;lat;lon;timestamp;pressure;altitude;pressure_sealevel;temperature;humidity
11343;BME280;5726;42.160;24.746;2023-03-03T00:01:25;99898.09;;;7.61;100.00
11343;BME280;5726;42.160;24.746;2023-03-03T00:03:51;99892.00;;;7.71;100.00
11343;BME280;5726;42.160;24.746;2023-03-03T00:06:17;99889.88;;;7.73;100.00
11343;BME280;5726;42.160;24.746;2023-03-03T00:08:43;99880.25;;;7.67;100.00
11343;BME280;5726;42.160;24.746;2023-03-03T00:11:09;99883.47;;;7.69;100.00
11343;BME280;5726;42.160;24.746;2023-03-03T00:13:44;99873.88;;;7.73;100.00
11343;BME280;5726;42.160;24.746;2023-03-03T00:16:31;99865.34;;;7.81;100.00
11343;BME280;5726;42.160;24.746;2023-03-03T00:19:00;99870.94;;;7.74;100.00
11343;BME280;5726;42.160;24.746;2023-03-03T00:21:30;99854.19;;;7.94;100.00
11343;BME280;5726;42.160;24.746;2023-03-03T00:26:54;99845.63;;;7.82;100.00
11343;BME280;5726;42.160;24.746;2023-03-03T00:31:48;99842.44;;;7.85;100.00
11343;BME280;5726;42.160;24.746;2023-03-03T00:36:43;99837.13;;;8.09;100.00
11343;BME280;5726;42.160;24.746;2023-03-03T00:39:19;99841.38;;;7.96;100.00
11343;BME280;5726;42.160;24.746;2023-03-03T00:41:45;99823.78;;;8.09;100.00
11343;BME280;5726;42.160;24.746;2023-03-03T00:46:50;99823.25;;;8.03;100.00
11343;BME280;5726;42.160;24.746;2023-03-03T00:49:23;99817.34;;;8.01;100.00
11343;BME280;5726;42.160;24.746;2023-03-03T00:51:51;99817.97;;;8.17;100.00
11343;BME280;5726;42.160;24.746;2023-03-03T00:54:17;99813.66;;;8.21;100.00
11343;BME280;5726;42.160;24.746;2023-03-03T00:56:43;99813.94;;;8.20;100.00
11343;BME280;5726;42.160;24.746;2023-03-03T00:59:08;99807.81;;;8.14;100.00
11343;BME280;5726;42.160;24.746;2023-03-03T01:01:34;99814.78;;;8.35;100.00
11343;BME280;5726;42.160;24.746;2023-03-03T01:03:59;99809.66;;;8.29;100.00
11343;BME280;5726;42.160;24.746;2023-03-03T01:06:25;99811.56;;;8.28;100.00
11343;BME280;5726;42.160;24.746;2023-03-03T01:08:50;99804.06;;;8.15;100.00
11343;BME280;5726;42.160;24.746;2023-03-03T01:11:19;99813.41;;;8.38;100.00
11343;BME280;5726;42.160;24.746;2023-03-03T01:13:47;99805.41;;;8.43;100.00
11343;BME280;5726;42.160;24.746;2023-03-03T01:16:14;99811.03;;;8.46;100.00
11343;BME280;5726;42.160;24.746;2023-03-03T01:18:40;99802.75;;;8.57;100.00
11343;BME280;5726;42.160;24.746;2023-03-03T01:21:07;99799.81;;;8.59;100.00
11343;BME280;5726;42.160;24.746;2023-03-03T01:23:33;99798.75;;;8.50;100.00
11343;BME280;5726;42.160;24.746;2023-03-03T01:25:58;99801.94;;;8.47;100.00
11343;BME280;5726;42.160;24.746;2023-03-03T01:28:24;99803.81;;;8.37;100.00
11343;BME280;5726;42.160;24.746;2023-03-03T01:30:49;99816.09;;;8.43;100.00
11343;BME280;5726;42.160;24.746;2023-03-03T01:33:15;99802.47;;;8.54;100.00
11343;BME280;5726;42.160;24.746;2023-03-03T01:35:45;99802.47;;;8.54;100.00
11343;BME280;5726;42.160;24.746;2023-03-03T01:38:11;99803.00;;;8.71;100.00
11343;BME280;5726;42.160;24.746;2023-03-03T01:40:37;99801.38;;;8.60;100.00
11343;BME280;5726;42.160;24.746;2023-03-03T01:43:03;99808.88;;;8.58;100.00
11343;BME280;5726;42.160;24.746;2023-03-03T01:45:30;99805.69;;;8.61;100.00
11343;BME280;5726;42.160;24.746;2023-03-03T01:50:39;99808.34;;;8.51;100.00
11343;BME280;5726;42.160;24.746;2023-03-03T01:53:11;99804.34;;;8.49;100.00
11343;BME280;5726;42.160;24.746;2023-03-03T01:55:40;99802.22;;;8.60;100.00
11343;BME280;5726;42.160;24.746;2023-03-03T01:58:30;99798.97;;;8.58;100.00
11343;BME280;5726;42.160;24.746;2023-03-03T02:01:01;99794.19;;;8.60;100.00
11343;BME280;5726;42.160;24.746;2023-03-03T02:03:28;99792.84;;;8.58;100.00
11343;BME280;5726;42.160;24.746;2023-03-03T02:05:58;99792.84;;;8.63;100.00
11343;BME280;5726;42.160;24.746;2023-03-03T02:08:30;99785.91;;;8.52;100.00
11343;BME280;5726;42.160;24.746;2023-03-03T02:11:01;99782.94;;;8.58;100.00
11343;BME280;5726;42.160;24.746;2023-03-03T02:13:27;99782.97;;;8.63;100.00
11343;BME280;5726;42.160;24.746;2023-03-03T02:15:52;99782.16;;;8.68;100.00
11343;BME280;5726;42.160;24.746;2023-03-03T02:18:18;99781.88;;;8.69;100.00
11343;BME280;5726;42.160;24.746;2023-03-03T02:23:39;99775.72;;;8.74;100.00
11343;BME280;5726;42.160;24.746;2023-03-03T02:26:11;99785.31;;;8.90;100.00
11343;BME280;5726;42.160;24.746;2023-03-03T02:28:38;99780.53;;;8.77;100.00
11343;BME280;5726;42.160;24.746;2023-03-03T02:31:08;99786.69;;;8.77;100.00
11343;BME280;5726;42.160;24.746;2023-03-03T02:33:37;99776.22;;;8.91;100.00
11343;BME280;5726;42.160;24.746;2023-03-03T02:36:03;99776.28;;;8.71;100.00
11343;BME280;5726;42.160;24.746;2023-03-03T02:38:33;99779.47;;;8.73;100.00
11343;BME280;5726;42.160;24.746;2023-03-03T02:44:11;99773.63;;;8.56;100.00
11343;BME280;5726;42.160;24.746;2023-03-03T02:46:39;99777.09;;;8.66;100.00
11343;BME280;5726;42.160;24.746;2023-03-03T02:49:06;99778.38;;;8.79;100.00
11343;BME280;5726;42.160;24.746;2023-03-03T02:51:33;99774.94;;;8.54;100.00
11343;BME280;5726;42.160;24.746;2023-03-03T02:53:58;99774.16;;;8.48;100.00
11343;BME280;5726;42.160;24.746;2023-03-03T02:56:24;99767.22;;;8.32;100.00
11343;BME280;5726;42.160;24.746;2023-03-03T02:58:49;99774.44;;;8.52;100.00
11343;BME280;5726;42.160;24.746;2023-03-03T03:01:15;99768.81;;;8.33;100.00
11343;BME280;5726;42.160;24.746;2023-03-03T03:03:40;99778.69;;;8.23;100.00
11343;BME280;5726;42.160;24.746;2023-03-03T03:06:06;99779.22;;;8.35;100.00
11343;BME280;5726;42.160;24.746;2023-03-03T03:08:31;99774.16;;;8.43;100.00
11343;BME280;5726;42.160;24.746;2023-03-03T03:10:57;99780.56;;;8.47;100.00
11343;BME280;5726;42.160;24.746;2023-03-03T03:13:23;99782.69;;;8.30;100.00
11343;BME280;5726;42.160;24.746;2023-03-03T03:15:48;99774.69;;;8.25;100.00
11343;BME280;5726;42.160;24.746;2023-03-03T03:18:15;99773.63;;;8.26;100.00
11343;BME280;5726;42.160;24.746;2023-03-03T03:20:41;99769.31;;;8.10;100.00
11343;BME280;5726;42.160;24.746;2023-03-03T03:23:08;99764.00;;;8.20;100.00
11343;BME280;5726;42.160;24.746;2023-03-03T03:25:33;99769.09;;;8.27;100.00
11343;BME280;5726;42.160;24.746;2023-03-03T03:27:59;99769.34;;;8.30;100.00
11343;BME280;5726;42.160;24.746;2023-03-03T03:30:25;99760.25;;;8.31;100.00
11343;BME280;5726;42.160;24.746;2023-03-03T03:32:50;99764.00;;;8.25;100.00
11343;BME280;5726;42.160;24.746;2023-03-03T03:35:15;99762.94;;;8.36;100.00
11343;BME280;5726;42.160;24.746;2023-03-03T03:37:42;99762.38;;;8.39;100.00
11343;BME280;5726;42.160;24.746;2023-03-03T03:40:08;99762.94;;;8.36;100.00
11343;BME280;5726;42.160;24.746;2023-03-03T03:42:34;99758.66;;;8.50;100.00
11343;BME280;5726;42.160;24.746;2023-03-03T03:44:59;99759.19;;;8.37;100.00
11343;BME280;5726;42.160;24.746;2023-03-03T03:47:25;99767.47;;;8.36;100.00
11343;BME280;5726;42.160;24.746;2023-03-03T03:49:50;99765.06;;;8.39;100.00
11343;BME280;5726;42.160;24.746;2023-03-03T03:52:15;99765.34;;;8.38;100.00
11343;BME280;5726;42.160;24.746;2023-03-03T03:54:41;99759.19;;;8.47;100.00
11343;BME280;5726;42.160;24.746;2023-03-03T03:57:07;99768.81;;;8.58;100.00
11343;BME280;5726;42.160;24.746;2023-03-03T03:59:32;99765.09;;;8.44;100.00
11343;BME280;5726;42.160;24.746;2023-03-03T04:01:58;99764.53;;;8.37;100.00
11343;BME280;5726;42.160;24.746;2023-03-03T04:04:23;99766.66;;;8.06;100.00
11343;BME280;5726;42.160;24.746;2023-03-03T04:06:49;99767.19;;;8.27;100.00
11343;BME280;5726;42.160;24.746;2023-03-03T04:09:14;99765.59;;;8.31;100.00
11343;BME280;5726;42.160;24.746;2023-03-03T04:11:41;99766.94;;;8.49;100.00
11343;BME280;5726;42.160;24.746;2023-03-03T04:14:06;99763.72;;;8.47;100.00
11343;BME280;5726;42.160;24.746;2023-03-03T04:16:32;99754.38;;;8.24;100.00
11343;BME280;5726;42.160;24.746;2023-03-03T04:18:57;99760.25;;;8.36;100.00
11343;BME280;5726;42.160;24.746;2023-03-03T04:21:23;99761.34;;;8.40;100.00
11343;BME280;5726;42.160;24.746;2023-03-03T04:23:49;99754.94;;;8.26;100.00
11343;BME280;5726;42.160;24.746;2023-03-03T04:26:14;99753.56;;;8.09;100.00
11343;BME280;5726;42.160;24.746;2023-03-03T04:28:40;99756.00;;;8.20;100.00
11343;BME280;5726;42.160;24.746;2023-03-03T04:31:05;99764.00;;;8.25;100.00
11343;BME280;5726;42.160;24.746;2023-03-03T04:33:31;99757.59;;;8.26;100.00
11343;BME280;5726;42.160;24.746;2023-03-03T04:35:56;99752.50;;;8.10;100.00
11343;BME280;5726;42.160;24.746;2023-03-03T04:38:22;99758.66;;;8.15;100.00
11343;BME280;5726;42.160;24.746;2023-03-03T04:40:47;99765.06;;;8.19;100.00
11343;BME280;5726;42.160;24.746;2023-03-03T04:43:13;99752.25;;;8.16;100.00
11343;BME280;5726;42.160;24.746;2023-03-03T04:45:38;99752.25;;;8.16;100.00
11343;BME280;5726;42.160;24.746;2023-03-03T04:48:04;99753.28;;;8.01;100.00
11343;BME280;5726;42.160;24.746;2023-03-03T04:50:29;99746.91;;;8.21;100.00
11343;BME280;5726;42.160;24.746;2023-03-03T04:52:55;99760.28;;;8.41;100.00
11343;BME280;5726;42.160;24.746;2023-03-03T04:55:20;99756.00;;;8.25;100.00
11343;BME280;5726;42.160;24.746;2023-03-03T04:57:46;99751.72;;;8.29;100.00
11343;BME280;5726;42.160;24.746;2023-03-03T05:00:13;99756.00;;;8.35;100.00
11343;BME280;5726;42.160;24.746;2023-03-03T05:02:39;99756.53;;;8.22;100.00
11343;BME280;5726;42.160;24.746;2023-03-03T05:05:06;99760.28;;;8.11;100.00
11343;BME280;5726;42.160;24.746;2023-03-03T05:07:32;99766.66;;;8.30;100.00
11343;BME280;5726;42.160;24.746;2023-03-03T05:09:57;99760.81;;;8.23;100.00
11343;BME280;5726;42.160;24.746;2023-03-03T05:12:22;99760.25;;;8.31;100.00
11343;BME280;5726;42.160;24.746;2023-03-03T05:14:48;99771.75;;;8.12;100.00
11343;BME280;5726;42.160;24.746;2023-03-03T05:17:13;99768.28;;;8.16;100.00
11343;BME280;5726;42.160;24.746;2023-03-03T05:19:39;99765.88;;;8.55;100.00
11343;BME280;5726;42.160;24.746;2023-03-03T05:22:05;99776.28;;;8.21;100.00
11343;BME280;5726;42.160;24.746;2023-03-03T05:24:30;99770.97;;;8.26;100.00
11343;BME280;5726;42.160;24.746;2023-03-03T05:26:56;99775.75;;;8.24;100.00
11343;BME280;5726;42.160;24.746;2023-03-03T05:29:21;99770.41;;;8.19;100.00
11343;BME280;5726;42.160;24.746;2023-03-03T05:31:47;99773.59;;;8.21;100.00
11343;BME280;5726;42.160;24.746;2023-03-03T05:34:12;99770.69;;;8.18;100.00
11343;BME280;5726;42.160;24.746;2023-03-03T05:36:37;99764.56;;;8.17;100.00
11343;BME280;5726;42.160;24.746;2023-03-03T05:39:03;99767.22;;;8.37;100.00
11343;BME280;5726;42.160;24.746;2023-03-03T05:41:28;99767.72;;;8.00;100.00
11343;BME280;5726;42.160;24.746;2023-03-03T05:43:54;99771.44;;;8.08;100.00
11343;BME280;5726;42.160;24.746;2023-03-03T05:46:20;99770.41;;;8.14;100.00
11343;BME280;5726;42.160;24.746;2023-03-03T05:48:45;99765.88;;;8.15;100.00
11343;BME280;5726;42.160;24.746;2023-03-03T05:51:11;99775.19;;;8.77;100.00
11343;BME280;5726;42.160;24.746;2023-03-03T05:53:36;99785.38;;;9.52;100.00
11343;BME280;5726;42.160;24.746;2023-03-03T05:56:02;99780.59;;;9.98;100.00
11343;BME280;5726;42.160;24.746;2023-03-03T05:58:27;99779.72;;;9.59;100.00
11343;BME280;5726;42.160;24.746;2023-03-03T06:00:53;99782.50;;;9.34;100.00
11343;BME280;5726;42.160;24.746;2023-03-03T06:03:19;99783.88;;;9.32;100.00
11343;BME280;5726;42.160;24.746;2023-03-03T06:05:44;99791.19;;;8.97;100.00
11343;BME280;5726;42.160;24.746;2023-03-03T06:08:09;99784.81;;;8.83;100.00
11343;BME280;5726;42.160;24.746;2023-03-03T06:10:35;99788.25;;;8.88;100.00
11343;BME280;5726;42.160;24.746;2023-03-03T06:13:00;99777.84;;;8.72;100.00
11343;BME280;5726;42.160;24.746;2023-03-03T06:15:26;99779.44;;;8.78;100.00
11343;BME280;5726;42.160;24.746;2023-03-03T06:17:51;99787.47;;;8.88;100.00
11343;BME280;5726;42.160;24.746;2023-03-03T06:20:17;99788.25;;;8.98;100.00
11343;BME280;5726;42.160;24.746;2023-03-03T06:22:42;99792.00;;;9.02;100.00
11343;BME280;5726;42.160;24.746;2023-03-03T06:25:08;99796.00;;;9.00;100.00
11343;BME280;5726;42.160;24.746;2023-03-03T06:27:34;99796.25;;;9.08;100.00
11343;BME280;5726;42.160;24.746;2023-03-03T06:29:59;99799.47;;;9.05;100.00
11343;BME280;5726;42.160;24.746;2023-03-03T06:32:25;99799.69;;;9.13;100.00
11343;BME280;5726;42.160;24.746;2023-03-03T06:34:50;99803.19;;;9.04;100.00
11343;BME280;5726;42.160;24.746;2023-03-03T06:37:15;99801.38;;;8.95;100.00
11343;BME280;5726;42.160;24.746;2023-03-03T06:39:41;99801.94;;;8.77;100.00
11343;BME280;5726;42.160;24.746;2023-03-03T06:42:06;99802.66;;;9.07;100.00
11343;BME280;5726;42.160;24.746;2023-03-03T06:44:34;99797.06;;;8.99;100.00
11343;BME280;5726;42.160;24.746;2023-03-03T06:46:59;99799.47;;;9.05;100.00
11343;BME280;5726;42.160;24.746;2023-03-03T06:49:25;99794.63;;;9.07;100.00
11343;BME280;5726;42.160;24.746;2023-03-03T06:51:51;99802.94;;;9.05;100.00
11343;BME280;5726;42.160;24.746;2023-03-03T06:54:19;99800.28;;;8.96;100.00
11343;BME280;5726;42.160;24.746;2023-03-03T06:56:46;99799.25;;;8.82;100.00
11343;BME280;5726;42.160;24.746;2023-03-03T06:59:17;99798.16;;;8.98;100.00
11343;BME280;5726;42.160;24.746;2023-03-03T07:01:44;99797.59;;;8.96;100.00
11343;BME280;5726;42.160;24.746;2023-03-03T07:04:21;99794.19;;;8.65;100.00
11343;BME280;5726;42.160;24.746;2023-03-03T07:06:49;99793.91;;;8.72;100.00
11343;BME280;5726;42.160;24.746;2023-03-03T07:09:24;99795.53;;;8.53;100.00
11343;BME280;5726;42.160;24.746;2023-03-03T07:11:51;99790.16;;;8.78;100.00
11343;BME280;5726;42.160;24.746;2023-03-03T07:14:19;99796.56;;;8.82;100.00
11343;BME280;5726;42.160;24.746;2023-03-03T07:16:44;99799.22;;;8.97;100.00
11343;BME280;5726;42.160;24.746;2023-03-03T07:19:25;99801.81;;;9.26;100.00
11343;BME280;5726;42.160;24.746;2023-03-03T07:21:52;99802.88;;;9.20;100.00
11343;BME280;5726;42.160;24.746;2023-03-03T07:24:27;99798.06;;;9.27;100.00
11343;BME280;5726;42.160;24.746;2023-03-03T07:26:57;99796.22;;;9.13;100.00
11343;BME280;5726;42.160;24.746;2023-03-03T07:29:28;99801.00;;;9.21;100.00
11343;BME280;5726;42.160;24.746;2023-03-03T07:31:57;99797.53;;;9.20;100.00
11343;BME280;5726;42.160;24.746;2023-03-03T07:34:35;99792.25;;;9.01;100.00
11343;BME280;5726;42.160;24.746;2023-03-03T07:37:09;99802.38;;;9.13;100.00
11343;BME280;5726;42.160;24.746;2023-03-03T07:39:38;99792.72;;;9.27;100.00
11343;BME280;5726;42.160;24.746;2023-03-03T07:44:56;99794.28;;;9.28;100.00
11343;BME280;5726;42.160;24.746;2023-03-03T07:47:28;99790.00;;;9.32;100.00
11343;BME280;5726;42.160;24.746;2023-03-03T07:50:00;99796.44;;;9.36;100.00
11343;BME280;5726;42.160;24.746;2023-03-03T07:52:40;99787.94;;;9.14;100.00
11343;BME280;5726;42.160;24.746;2023-03-03T07:55:29;99792.75;;;9.07;100.00
11343;BME280;5726;42.160;24.746;2023-03-03T07:57:58;99796.78;;;9.10;100.00
11343;BME280;5726;42.160;24.746;2023-03-03T08:18:36;99775.59;;;9.23;100.00
11343;BME280;5726;42.160;24.746;2023-03-03T08:21:17;99775.66;;;9.04;100.00
11343;BME280;5726;42.160;24.746;2023-03-03T08:23:43;99767.41;;;8.95;100.00
11343;BME280;5726;42.160;24.746;2023-03-03T08:26:09;99768.72;;;9.03;100.00
11343;BME280;5726;42.160;24.746;2023-03-03T08:28:37;99770.28;;;9.13;100.00
11343;BME280;5726;42.160;24.746;2023-03-03T08:31:02;99760.09;;;9.20;100.00
11343;BME280;5726;42.160;24.746;2023-03-03T08:33:28;99764.91;;;9.23;100.00
11343;BME280;5726;42.160;24.746;2023-03-03T08:35:53;99760.00;;;9.45;100.00
11343;BME280;5726;42.160;24.746;2023-03-03T08:38:20;99758.59;;;9.57;100.00
11343;BME280;5726;42.160;24.746;2023-03-03T08:40:47;99756.69;;;9.58;100.00
11343;BME280;5726;42.160;24.746;2023-03-03T08:43:14;99754.13;;;9.38;100.00
11343;BME280;5726;42.160;24.746;2023-03-03T08:45:45;99750.03;;;9.51;100.00
11343;BME280;5726;42.160;24.746;2023-03-03T08:48:11;99749.56;;;9.44;100.00
11343;BME280;5726;42.160;24.746;2023-03-03T08:50:37;99748.94;;;9.61;100.00
11343;BME280;5726;42.160;24.746;2023-03-03T08:53:04;99747.91;;;9.52;100.00
11343;BME280;5726;42.160;24.746;2023-03-03T08:55:30;99751.09;;;9.54;100.00
11343;BME280;5726;42.160;24.746;2023-03-03T08:57:55;99749.75;;;9.57;100.00
11343;BME280;5726;42.160;24.746;2023-03-03T09:00:21;99743.81;;;9.65;100.00
11343;BME280;5726;42.160;24.746;2023-03-03T09:02:50;99745.91;;;9.78;100.00
11343;BME280;5726;42.160;24.746;2023-03-03T09:05:16;99746.34;;;9.95;100.00
11343;BME280;5726;42.160;24.746;2023-03-03T09:07:43;99744.59;;;10.70;100.00
11343;BME280;5726;42.160;24.746;2023-03-03T09:10:11;99742.78;;;10.65;100.00
11343;BME280;5726;42.160;24.746;2023-03-03T09:12:39;99735.78;;;10.41;100.00
11343;BME280;5726;42.160;24.746;2023-03-03T09:15:37;99740.28;;;10.46;100.00
11343;BME280;5726;42.160;24.746;2023-03-03T09:18:20;99735.41;;;10.24;100.00
11343;BME280;5726;42.160;24.746;2023-03-03T09:20:51;99747.84;;;10.10;100.00
11343;BME280;5726;42.160;24.746;2023-03-03T09:25:49;99737.81;;;10.21;100.00
11343;BME280;5726;42.160;24.746;2023-03-03T09:28:34;99733.78;;;10.23;100.00
11343;BME280;5726;42.160;24.746;2023-03-03T09:31:02;99722.56;;;10.21;100.00
11343;BME280;5726;42.160;24.746;2023-03-03T09:33:47;99727.16;;;10.16;100.00
11343;BME280;5726;42.160;24.746;2023-03-03T09:36:29;99728.66;;;9.94;100.00
11343;BME280;5726;42.160;24.746;2023-03-03T09:39:00;99724.09;;;9.89;100.00
11343;BME280;5726;42.160;24.746;2023-03-03T09:44:35;99726.53;;;9.96;100.00
11343;BME280;5726;42.160;24.746;2023-03-03T09:47:40;99726.00;;;9.89;100.00
11343;BME280;5726;42.160;24.746;2023-03-03T09:58:17;99721.00;;;9.29;100.00
11343;BME280;5726;42.160;24.746;2023-03-03T10:01:13;99720.19;;;9.29;100.00
11343;BME280;5726;42.160;24.746;2023-03-03T10:06:28;99719.00;;;8.97;100.00
11343;BME280;5726;42.160;24.746;2023-03-03T10:17:43;99724.09;;;9.46;100.00
11343;BME280;5726;42.160;24.746;2023-03-03T10:25:57;99713.44;;;8.78;100.00
11343;BME280;5726;42.160;24.746;2023-03-03T10:50:11;99686.38;;;9.48;100.00
11343;BME280;5726;42.160;24.746;2023-03-03T10:53:04;99680.59;;;9.31;100.00
11343;BME280;5726;42.160;24.746;2023-03-03T11:06:00;99654.84;;;9.78;100.00
11343;BME280;5726;42.160;24.746;2023-03-03T11:08:31;99655.66;;;9.78;100.00
11343;BME280;5726;42.160;24.746;2023-03-03T11:13:58;99657.00;;;9.76;100.00
11343;BME280;5726;42.160;24.746;2023-03-03T11:16:36;99651.28;;;9.87;100.00
11343;BME280;5726;42.160;24.746;2023-03-03T11:24:30;99647.81;;;10.43;100.00
11343;BME280;5726;42.160;24.746;2023-03-03T11:29:59;99642.88;;;10.03;100.00
11343;BME280;5726;42.160;24.746;2023-03-03T11:32:37;99648.38;;;9.84;100.00
11343;BME280;5726;42.160;24.746;2023-03-03T11:40:27;99638.50;;;10.12;100.00
11343;BME280;5726;42.160;24.746;2023-03-03T11:43:07;99643.25;;;10.20;100.00
11343;BME280;5726;42.160;24.746;2023-03-03T11:45:44;99632.72;;;10.52;100.00
11343;BME280;5726;42.160;24.746;2023-03-03T11:48:37;99629.59;;;10.45;100.00
11343;BME280;5726;42.160;24.746;2023-03-03T11:51:13;99624.00;;;10.65;100.00
11343;BME280;5726;42.160;24.746;2023-03-03T11:53:57;99623.16;;;10.69;100.00
11343;BME280;5726;42.160;24.746;2023-03-03T11:56:39;99618.53;;;10.75;100.00
11343;BME280;5726;42.160;24.746;2023-03-03T12:07:26;99607.63;;;10.90;100.00
11343;BME280;5726;42.160;24.746;2023-03-03T12:17:54;99595.59;;;10.64;100.00
11343;BME280;5726;42.160;24.746;2023-03-03T12:26:18;99591.38;;;10.99;100.00
11343;BME280;5726;42.160;24.746;2023-03-03T12:28:59;99588.66;;;10.63;100.00
11343;BME280;5726;42.160;24.746;2023-03-03T12:34:22;99583.66;;;10.75;100.00
11343;BME280;5726;42.160;24.746;2023-03-03T12:39:57;99593.91;;;11.28;100.00
11343;BME280;5726;42.160;24.746;2023-03-03T12:48:15;99596.44;;;10.83;100.00
11343;BME280;5726;42.160;24.746;2023-03-03T12:50:56;99597.66;;;10.72;100.00
11343;BME280;5726;42.160;24.746;2023-03-03T12:56:57;99597.38;;;10.92;100.00
11343;BME280;5726;42.160;24.746;2023-03-03T12:59:47;99587.72;;;10.91;100.00
11343;BME280;5726;42.160;24.746;2023-03-03T13:11:04;99583.19;;;11.09;100.00
11343;BME280;5726;42.160;24.746;2023-03-03T13:13:55;99585.22;;;10.34;100.00
11343;BME280;5726;42.160;24.746;2023-03-03T13:17:08;99583.16;;;10.26;100.00
11343;BME280;5726;42.160;24.746;2023-03-03T13:19:45;99584.75;;;10.50;100.00
11343;BME280;5726;42.160;24.746;2023-03-03T13:22:17;99574.50;;;10.34;100.00
11343;BME280;5726;42.160;24.746;2023-03-03T13:27:41;99589.31;;;10.50;100.00
11343;BME280;5726;42.160;24.746;2023-03-03T13:30:15;99578.13;;;10.66;100.00
11343;BME280;5726;42.160;24.746;2023-03-03T13:32:58;99567.69;;;10.65;100.00
11343;BME280;5726;42.160;24.746;2023-03-03T13:35:36;99573.31;;;10.87;100.00
11343;BME280;5726;42.160;24.746;2023-03-03T13:38:05;99581.16;;;11.01;100.00
11343;BME280;5726;42.160;24.746;2023-03-03T13:40:43;99579.75;;;10.86;100.00
11343;BME280;5726;42.160;24.746;2023-03-03T13:51:18;99579.41;;;10.50;100.00
11343;BME280;5726;42.160;24.746;2023-03-03T13:54:11;99567.88;;;10.50;100.00
11343;BME280;5726;42.160;24.746;2023-03-03T13:56:52;99567.59;;;10.51;100.00
11343;BME280;5726;42.160;24.746;2023-03-03T14:02:40;99574.03;;;10.50;100.00
11343;BME280;5726;42.160;24.746;2023-03-03T14:05:58;99559.44;;;10.38;100.00
11343;BME280;5726;42.160;24.746;2023-03-03T14:13:26;99556.13;;;10.46;100.00
11343;BME280;5726;42.160;24.746;2023-03-03T14:16:31;99561.56;;;10.64;100.00
11343;BME280;5726;42.160;24.746;2023-03-03T14:19:16;99556.38;;;10.49;100.00
11343;BME280;5726;42.160;24.746;2023-03-03T14:27:32;99552.84;;;10.54;100.00
11343;BME280;5726;42.160;24.746;2023-03-03T14:29:58;99553.84;;;10.58;100.00
11343;BME280;5726;42.160;24.746;2023-03-03T14:32:26;99557.06;;;10.60;100.00
11343;BME280;5726;42.160;24.746;2023-03-03T14:35:00;99559.66;;;10.65;100.00
11343;BME280;5726;42.160;24.746;2023-03-03T14:37:45;99548.91;;;10.47;100.00
11343;BME280;5726;42.160;24.746;2023-03-03T14:40:31;99543.94;;;10.58;100.00
11343;BME280;5726;42.160;24.746;2023-03-03T14:42:59;99547.31;;;10.64;100.00
11343;BME280;5726;42.160;24.746;2023-03-03T14:45:33;99549.91;;;10.50;100.00
11343;BME280;5726;42.160;24.746;2023-03-03T14:50:57;99541.75;;;10.60;100.00
11343;BME280;5726;42.160;24.746;2023-03-03T14:53:34;99545.88;;;10.71;100.00
11343;BME280;5726;42.160;24.746;2023-03-03T14:58:40;99542.44;;;11.07;100.00
11343;BME280;5726;42.160;24.746;2023-03-03T15:01:22;99543.94;;;10.77;100.00
11343;BME280;5726;42.160;24.746;2023-03-03T15:03:58;99542.28;;;10.81;100.00
11343;BME280;5726;42.160;24.746;2023-03-03T15:11:54;99538.56;;;10.58;100.00
11343;BME280;5726;42.160;24.746;2023-03-03T15:14:28;99539.19;;;10.50;100.00
11343;BME280;5726;42.160;24.746;2023-03-03T15:25:13;99547.06;;;11.20;100.00
11343;BME280;5726;42.160;24.746;2023-03-03T15:27:50;99546.72;;;10.90;100.00
11343;BME280;5726;42.160;24.746;2023-03-03T15:30:30;99541.69;;;10.65;100.00
11343;BME280;5726;42.160;24.746;2023-03-03T15:33:04;99551.00;;;10.49;100.00
11343;BME280;5726;42.160;24.746;2023-03-03T15:35:56;99558.13;;;10.77;100.00
11343;BME280;5726;42.160;24.746;2023-03-03T15:38:33;99559.44;;;10.38;100.00
11343;BME280;5726;42.160;24.746;2023-03-03T15:41:07;99558.53;;;10.48;100.00
11343;BME280;5726;42.160;24.746;2023-03-03T15:43:55;99561.34;;;10.79;100.00
11343;BME280;5726;42.160;24.746;2023-03-03T15:46:54;99559.75;;;10.78;100.00
11343;BME280;5726;42.160;24.746;2023-03-03T15:50:02;99566.72;;;10.79;100.00
11343;BME280;5726;42.160;24.746;2023-03-03T15:52:42;99557.34;;;10.77;100.00
11343;BME280;5726;42.160;24.746;2023-03-03T16:03:41;99565.03;;;10.65;100.00
11343;BME280;5726;42.160;24.746;2023-03-03T16:06:21;99566.47;;;10.76;100.00
11343;BME280;5726;42.160;24.746;2023-03-03T16:08:55;99574.28;;;10.96;100.00
11343;BME280;5726;42.160;24.746;2023-03-03T16:11:29;99582.03;;;11.15;100.00
11343;BME280;5726;42.160;24.746;2023-03-03T16:20:06;99594.94;;;10.30;100.00
11343;BME280;5726;42.160;24.746;2023-03-03T16:22:45;99600.56;;;10.94;100.00
11343;BME280;5726;42.160;24.746;2023-03-03T16:31:00;99591.81;;;11.06;100.00
11343;BME280;5726;42.160;24.746;2023-03-03T16:38:42;99602.69;;;10.96;100.00
11343;BME280;5726;42.160;24.746;2023-03-03T16:41:20;99602.06;;;11.04;100.00
11343;BME280;5726;42.160;24.746;2023-03-03T16:49:58;99605.94;;;10.94;100.00
11343;BME280;5726;42.160;24.746;2023-03-03T16:52:55;99608.56;;;10.98;100.00
11343;BME280;5726;42.160;24.746;2023-03-03T16:55:31;99610.31;;;10.90;100.00
11343;BME280;5726;42.160;24.746;2023-03-03T17:01:11;99626.03;;;10.73;100.00
11343;BME280;5726;42.160;24.746;2023-03-03T17:14:38;99612.56;;;10.31;100.00
11343;BME280;5726;42.160;24.746;2023-03-03T17:25:21;99634.72;;;10.42;100.00
11343;BME280;5726;42.160;24.746;2023-03-03T17:30:57;99639.56;;;10.40;100.00
11343;BME280;5726;42.160;24.746;2023-03-03T17:36:27;99646.81;;;10.39;100.00
11343;BME280;5726;42.160;24.746;2023-03-03T17:58:54;99663.91;;;10.15;100.00
11343;BME280;5726;42.160;24.746;2023-03-03T18:03:34;99652.97;;;10.11;100.00
11343;BME280;5726;42.160;24.746;2023-03-03T18:06:18;99655.88;;;9.82;100.00
11343;BME280;5726;42.160;24.746;2023-03-03T18:08:58;99663.28;;;9.56;100.00